Time;durP1;ratioP1;P1;durP2;ratioP2;P2;SDS_P1;SDS_P2;PMS_P1;PMS_P2;Temp;Humidity;BMP_temperature;BMP_pressure;BME280_temperature;BME280_humidity;BME280_pressure;Samples;Min_cycle;Max_cycle;Signal;HPM_P1;HPM_P2
2023/06/23 00:02:00;;;;;;;0.30;0.30;;;29.80;61.00;;;30.77;43.65;94676.38;5033032;28;20196;-49
2023/06/23 00:04:27;;;;;;;0.30;0.30;;;29.80;61.00;;;30.76;43.66;94704.56;5033224;28;20256;-46
2023/06/23 00:06:54;;;;;;;0.28;0.28;;;29.80;61.00;;;30.75;44.16;94702.97;5033189;28;20654;-46
2023/06/23 00:09:22;;;;;;;0.30;0.30;;;29.80;61.00;;;30.74;43.64;94720.34;5033128;28;20196;-43
2023/06/23 00:11:49;;;;;;;0.30;0.30;;;29.80;61.10;;;30.73;44.40;94733.06;5033387;28;20593;-47
2023/06/23 00:14:16;;;;;;;0.30;0.30;;;29.80;61.00;;;30.72;44.18;94725.28;5033011;28;20556;-45
2023/06/23 00:16:43;;;;;;;0.30;0.30;;;29.80;61.00;;;30.71;44.17;94737.22;5033110;28;20212;-47
2023/06/23 00:19:11;;;;;;;0.30;0.30;;;29.80;61.10;;;30.70;43.93;94731.03;5033280;28;20208;-42
2023/06/23 00:21:38;;;;;;;0.30;0.30;;;29.80;61.20;;;30.69;44.41;94736.75;5032959;28;20219;-42
2023/06/23 00:24:06;;;;;;;0.35;0.35;;;29.80;61.10;;;30.67;44.43;94745.22;5032646;28;20693;-43
2023/06/23 00:26:34;;;;;;;0.30;0.30;;;29.80;61.10;;;30.66;43.99;94752.56;5032822;28;20188;-42
2023/06/23 00:29:01;;;;;;;0.30;0.30;;;29.80;61.10;;;30.67;43.94;94747.91;5032154;28;20201;-44
2023/06/23 00:31:28;;;;;;;0.30;0.30;;;29.80;61.20;;;30.65;44.63;94758.25;5031862;28;20229;-40
2023/06/23 00:33:56;;;;;;;0.20;0.20;;;29.80;61.20;;;30.63;43.97;94764.00;5032588;28;20284;-41
2023/06/23 00:36:23;;;;;;;0.20;0.20;;;29.80;61.20;;;30.63;44.64;94758.59;5032981;28;20623;-41
2023/06/23 00:38:50;;;;;;;0.20;0.20;;;29.80;61.30;;;30.63;44.36;94763.22;5032651;28;20196;-41
2023/06/23 00:41:17;;;;;;;0.20;0.20;;;29.80;61.30;;;30.62;44.15;94775.16;5031689;28;20604;-41
2023/06/23 00:43:49;;;;;;;0.32;0.32;;;29.80;61.30;;;30.61;44.45;94758.13;5032420;28;20209;-41
2023/06/23 00:46:20;;;;;;;0.30;0.30;;;29.70;61.20;;;30.59;44.10;94757.66;5048146;28;20203;-41
2023/06/23 00:48:48;;;;;;;0.28;0.28;;;29.80;61.30;;;30.59;44.21;94764.97;5032846;28;20180;-41
2023/06/23 00:51:16;;;;;;;0.30;0.30;;;29.80;61.30;;;30.56;44.42;94758.31;5032438;28;20212;-42
2023/06/23 00:53:47;;;;;;;0.20;0.20;;;29.70;61.20;;;30.55;44.12;94756.72;5047799;28;20656;-42
2023/06/23 00:56:21;;;;;;;0.20;0.20;;;29.80;61.30;;;30.53;44.15;94767.09;5032722;28;20176;-41
2023/06/23 00:58:49;;;;;;;0.30;0.30;;;29.70;61.30;;;30.52;44.49;94789.84;5032467;28;20632;-41
2023/06/23 01:01:17;;;;;;;0.20;0.20;;;29.70;61.30;;;30.50;44.12;94790.19;5032258;28;20612;-41
2023/06/23 01:03:44;;;;;;;0.30;0.30;;;29.70;61.30;;;30.50;44.84;94794.78;5031458;28;20200;-41
2023/06/23 01:06:47;;;;;;;0.30;0.30;;;29.70;61.30;;;30.45;44.55;94803.81;5032252;28;20224;-41
2023/06/23 01:09:29;;;;;;;0.30;0.30;;;29.70;61.30;;;30.44;44.35;94807.66;5032551;28;20200;-40
2023/06/23 01:12:12;;;;;;;0.20;0.20;;;29.60;61.30;;;30.43;44.11;94797.97;5032180;28;20267;-43
2023/06/23 01:14:57;;;;;;;0.20;0.20;;;29.60;61.20;;;30.41;44.54;94791.28;5031462;28;20582;-41
2023/06/23 01:17:32;;;;;;;0.30;0.30;;;29.60;61.30;;;30.40;44.53;94793.19;5032481;28;20203;-42
2023/06/23 01:20:21;;;;;;;0.30;0.30;;;29.60;61.30;;;30.37;44.25;94804.66;5032725;28;20191;-42
2023/06/23 01:23:45;;;;;;;0.20;0.20;;;29.60;61.20;;;30.33;44.36;94809.91;5047407;28;20677;-44
2023/06/23 01:26:48;;;;;;;0.22;0.22;;;29.60;61.20;;;30.30;44.17;94801.66;5031131;28;20204;-44
2023/06/23 01:29:21;;;;;;;0.30;0.30;;;29.60;61.20;;;30.31;44.14;94805.91;5027581;28;20200;-41
2023/06/23 01:32:08;;;;;;;0.30;0.30;;;29.60;61.30;;;30.28;44.83;94810.06;5031389;28;20233;-41
2023/06/23 01:34:43;;;;;;;0.30;0.30;;;29.50;61.10;;;30.27;44.31;94811.19;5032026;28;20184;-43
2023/06/23 01:37:25;;;;;;;0.30;0.30;;;29.50;61.20;;;30.26;44.34;94803.38;5047660;28;20189;-42
2023/06/23 01:40:03;;;;;;;0.40;0.40;;;29.50;61.20;;;30.24;44.72;94801.00;5030957;28;20201;-44
2023/06/23 01:42:34;;;;;;;0.35;0.35;;;29.50;61.20;;;30.23;44.17;94815.66;5014814;28;20619;-44
2023/06/23 01:45:07;;;;;;;0.30;0.30;;;29.50;61.10;;;30.22;44.10;94805.94;5046509;28;20169;-42
2023/06/23 01:47:38;;;;;;;0.30;0.30;;;29.40;61.10;;;30.21;44.26;94804.34;5031224;28;20191;-42
2023/06/23 01:50:12;;;;;;;0.20;0.20;;;29.50;61.20;;;30.19;44.52;94807.38;5031196;28;20209;-48
2023/06/23 01:52:40;;;;;;;0.30;0.30;;;29.40;61.10;;;30.20;44.35;94813.59;5030728;28;20600;-43
2023/06/23 01:55:09;;;;;;;0.30;0.30;;;29.40;61.20;;;30.18;44.82;94813.09;5031493;28;20195;-42
2023/06/23 01:57:39;;;;;;;0.20;0.20;;;29.40;61.10;;;30.17;44.86;94816.94;5047294;28;20192;-46
2023/06/23 02:00:13;;;;;;;0.20;0.20;;;29.40;61.20;;;30.17;44.84;94811.53;5014416;28;20536;-42
2023/06/23 02:02:43;;;;;;;0.20;0.20;;;29.40;61.20;;;30.16;44.21;94802.63;5031330;28;20183;-45
2023/06/23 02:05:12;;;;;;;0.20;0.20;;;29.40;61.30;;;30.15;44.16;94802.91;5014884;28;20195;-42
2023/06/23 02:07:42;;;;;;;0.20;0.20;;;29.40;61.20;;;30.15;44.24;94800.22;5030582;28;20204;-45
2023/06/23 02:10:10;;;;;;;0.30;0.30;;;29.40;61.20;;;30.13;44.25;94781.59;5031462;28;20521;-42
2023/06/23 02:12:43;;;;;;;0.30;0.30;;;29.40;61.20;;;30.12;44.18;94782.72;5030448;28;20219;-46
2023/06/23 02:15:12;;;;;;;0.25;0.25;;;29.30;61.10;;;30.11;44.60;94783.81;4999476;28;20206;-41
2023/06/23 02:17:41;;;;;;;0.28;0.28;;;29.30;61.20;;;30.10;44.12;94784.97;5035132;28;20548;-45
2023/06/23 02:20:15;;;;;;;0.22;0.22;;;29.30;61.20;;;30.09;44.80;94787.97;5050492;28;20589;-45
2023/06/23 02:22:49;;;;;;;0.30;0.30;;;29.30;62.10;;;30.09;44.75;94783.38;5034326;28;20294;-41
2023/06/23 02:25:19;;;;;;;0.20;0.20;;;29.30;61.20;;;30.07;44.51;94792.91;5034068;28;20178;-41
2023/06/23 02:27:47;;;;;;;0.22;0.22;;;29.30;61.10;;;30.06;43.97;94791.31;5034840;28;20203;-42
2023/06/23 02:30:17;;;;;;;0.20;0.20;;;29.30;61.10;;;30.04;43.96;94786.22;5050218;28;20196;-41
2023/06/23 02:32:48;;;;;;;0.20;0.20;;;29.30;61.10;;;30.03;44.13;94779.25;5033687;28;20218;-41
2023/06/23 02:35:16;;;;;;;0.30;0.30;;;29.30;61.10;;;30.01;44.57;94778.75;5034470;28;20263;-41
2023/06/23 02:37:53;;;;;;;0.30;0.30;;;29.20;61.00;;;30.00;44.43;94775.28;5033635;28;20226;-42
2023/06/23 02:40:23;;;;;;;0.30;0.30;;;29.30;61.10;;;29.99;44.69;94765.56;5033578;28;20592;-41
2023/06/23 02:43:02;;;;;;;0.30;0.30;;;29.20;61.00;;;29.97;44.32;94772.41;5033648;28;20300;-43
2023/06/23 02:45:36;;;;;;;0.35;0.35;;;29.20;61.00;;;29.95;44.40;94772.69;5033525;28;20630;-42
2023/06/23 02:48:13;;;;;;;0.30;0.30;;;29.10;61.00;;;29.94;43.93;94770.31;5033884;28;20625;-41
2023/06/23 02:50:41;;;;;;;0.40;0.40;;;29.10;61.00;;;29.92;44.07;94770.66;5033840;28;20606;-42
2023/06/23 02:53:16;;;;;;;0.25;0.25;;;29.10;61.00;;;29.91;44.13;94784.50;5033343;28;20233;-41
2023/06/23 02:55:45;;;;;;;0.30;0.30;;;29.10;61.00;;;29.89;44.44;94781.28;5050111;28;20258;-41
2023/06/23 02:58:16;;;;;;;0.30;0.30;;;29.10;61.10;;;29.85;43.87;94760.28;5049829;28;20198;-42
2023/06/23 03:00:44;;;;;;;0.20;0.20;;;29.10;61.10;;;29.85;44.35;94767.59;5033268;28;20187;-41
2023/06/23 03:03:15;;;;;;;0.30;0.30;;;29.10;61.00;;;29.82;43.88;94771.75;5033125;28;20244;-42
2023/06/23 03:05:45;;;;;;;0.30;0.30;;;29.00;61.00;;;29.80;44.56;94773.97;5033259;28;20725;-41
2023/06/23 03:08:12;;;;;;;0.30;0.30;;;29.00;60.90;;;29.79;43.95;94779.69;5033122;28;20530;-41
2023/06/23 03:10:40;;;;;;;0.30;0.30;;;29.00;61.00;;;29.77;43.80;94787.31;5034310;28;20190;-42
2023/06/23 03:13:08;;;;;;;0.30;0.30;;;29.00;61.00;;;29.75;44.40;94779.53;5033898;28;20603;-41
2023/06/23 03:15:36;;;;;;;0.28;0.28;;;29.00;61.00;;;29.73;44.00;94780.97;5032905;28;20209;-42
2023/06/23 03:18:12;;;;;;;0.30;0.30;;;28.90;60.90;;;29.69;44.37;94807.84;5033957;28;20191;-42
2023/06/23 03:20:46;;;;;;;0.30;0.30;;;28.90;60.90;;;29.67;44.52;94813.53;5034239;28;20181;-41
2023/06/23 03:23:16;;;;;;;0.20;0.20;;;28.90;61.00;;;29.65;44.35;94823.88;5033909;28;20736;-44
2023/06/23 03:25:46;;;;;;;0.20;0.20;;;28.90;61.00;;;29.64;44.60;94825.00;5032221;28;20289;-44
2023/06/23 03:28:25;;;;;;;0.25;0.25;;;28.80;61.00;;;29.62;44.54;94812.91;5049564;28;20191;-41
2023/06/23 03:31:06;;;;;;;0.30;0.30;;;28.80;61.00;;;29.60;43.88;94828.63;5034077;28;20558;-42
2023/06/23 03:33:46;;;;;;;0.30;0.30;;;28.80;61.10;;;29.59;44.17;94830.56;5033022;28;20233;-43
2023/06/23 03:36:21;;;;;;;0.40;0.40;;;28.80;61.00;;;29.57;44.17;94838.19;5034051;28;20191;-42
2023/06/23 03:39:03;;;;;;;0.30;0.30;;;28.80;61.20;;;29.56;44.86;94831.19;5033732;28;20193;-41
2023/06/23 03:41:33;;;;;;;0.30;0.30;;;28.80;61.10;;;29.57;44.65;94837.41;5049821;28;20303;-42
2023/06/23 03:44:32;;;;;;;0.30;0.30;;;28.80;61.10;;;29.52;44.63;94847.22;5032494;28;20287;-42
2023/06/23 03:47:28;;;;;;;0.30;0.30;;;28.80;61.20;;;29.50;44.77;94849.47;5032742;28;20577;-41
2023/06/23 03:50:08;;;;;;;0.20;0.20;;;28.80;61.20;;;29.51;44.42;94853.72;5031422;28;20215;-42
2023/06/23 03:52:41;;;;;;;0.30;0.30;;;28.80;61.10;;;29.50;44.50;94854.06;5033841;28;20259;-41
2023/06/23 03:55:13;;;;;;;0.30;0.30;;;28.80;61.20;;;29.49;44.47;94852.47;5032391;28;20212;-46
2023/06/23 03:57:42;;;;;;;0.28;0.28;;;28.80;61.20;;;29.48;44.15;94857.06;5033314;28;20188;-40
2023/06/23 04:00:11;;;;;;;0.30;0.30;;;28.80;61.20;;;29.47;44.25;94866.28;5016009;28;20684;-40
2023/06/23 04:02:44;;;;;;;0.30;0.30;;;28.80;61.30;;;29.45;44.74;94857.69;5033026;28;20182;-42
2023/06/23 04:05:13;;;;;;;0.30;0.30;;;28.70;62.10;;;29.44;44.23;94858.00;5048667;28;20229;-39
2023/06/23 04:07:40;;;;;;;0.25;0.25;;;28.70;61.10;;;29.40;44.24;94852.44;5033466;28;20281;-40
2023/06/23 04:10:09;;;;;;;0.20;0.20;;;28.70;61.00;;;29.36;44.13;94856.88;5032614;28;20363;-43
2023/06/23 04:12:38;;;;;;;0.30;0.30;;;28.70;60.90;;;29.34;44.09;94853.69;5032179;28;20246;-41
2023/06/23 04:15:08;;;;;;;0.30;0.30;;;28.60;60.80;;;29.32;44.53;94850.50;5032921;28;20272;-44
2023/06/23 04:17:40;;;;;;;0.30;0.30;;;28.60;60.70;;;29.28;43.86;94844.13;5032103;28;20237;-42
2023/06/23 04:20:09;;;;;;;0.40;0.40;;;28.60;60.70;;;29.27;44.58;94848.69;5016492;28;20182;-42
2023/06/23 04:22:40;;;;;;;0.30;0.30;;;28.60;60.70;;;29.26;44.69;94840.91;5032755;28;20255;-40
2023/06/23 04:25:08;;;;;;;0.30;0.30;;;28.60;60.80;;;29.26;44.12;94839.03;5032157;28;20287;-40
2023/06/23 04:27:37;;;;;;;0.30;0.30;;;28.60;60.80;;;29.24;44.08;94827.72;5033106;28;20195;-38
2023/06/23 04:30:07;;;;;;;0.30;0.30;;;28.60;60.80;;;29.24;44.02;94828.53;5033139;28;20567;-39
2023/06/23 04:32:37;;;;;;;0.30;0.30;;;28.60;60.80;;;29.24;44.10;94844.72;5032108;28;20227;-39
2023/06/23 04:35:05;;;;;;;0.30;0.30;;;28.50;60.70;;;29.24;44.40;94843.94;5048196;28;20279;-40
2023/06/23 04:37:48;;;;;;;0.20;0.20;;;28.50;60.80;;;29.21;44.54;94839.16;5031746;28;20288;-39
2023/06/23 04:40:43;;;;;;;0.30;0.30;;;28.50;60.70;;;29.21;44.26;94836.44;5032986;28;20183;-39
2023/06/23 04:43:18;;;;;;;0.30;0.30;;;28.60;60.70;;;29.19;44.02;94849.50;5032957;28;20265;-39
2023/06/23 04:46:17;;;;;;;0.30;0.30;;;28.50;60.80;;;29.16;44.03;94847.41;5032603;28;20186;-39
2023/06/23 04:49:10;;;;;;;0.30;0.30;;;28.50;60.70;;;29.15;44.52;94851.22;5032809;28;20195;-38
2023/06/23 04:51:46;;;;;;;0.40;0.40;;;28.50;60.80;;;29.15;44.14;94865.53;5032558;28;20580;-38
2023/06/23 04:54:22;;;;;;;0.30;0.30;;;28.50;60.70;;;29.15;43.88;94870.94;5031423;28;20306;-40
2023/06/23 04:56:52;;;;;;;0.25;0.25;;;28.50;60.80;;;29.15;44.02;94856.59;5033091;28;20243;-39
2023/06/23 04:59:21;;;;;;;0.30;0.30;;;28.50;60.80;;;29.16;44.30;94863.59;5031721;28;20611;-39
2023/06/23 05:01:49;;;;;;;0.30;0.30;;;28.50;60.80;;;29.15;44.08;94880.91;5031797;28;20237;-39
2023/06/23 05:04:17;;;;;;;0.20;0.20;;;28.50;60.80;;;29.14;44.46;94890.94;5032425;28;20194;-40
2023/06/23 05:06:46;;;;;;;0.20;0.20;;;28.40;60.70;;;29.14;44.53;94904.44;5048032;28;20206;-40
2023/06/23 05:09:15;;;;;;;0.30;0.30;;;28.50;60.80;;;29.13;44.40;94910.94;5031683;28;20579;-39
2023/06/23 05:11:44;;;;;;;0.30;0.30;;;28.50;60.90;;;29.15;44.51;94913.31;5031379;28;20541;-39
2023/06/23 05:14:13;;;;;;;0.20;0.20;;;28.50;60.90;;;29.14;44.44;94911.72;5031091;28;20214;-40
2023/06/23 05:16:42;;;;;;;0.30;0.30;;;28.50;60.90;;;29.14;43.93;94909.03;5032442;28;20247;-38
2023/06/23 05:19:11;;;;;;;0.20;0.20;;;28.50;60.90;;;29.14;44.45;94917.13;5032436;28;20191;-42
2023/06/23 05:21:40;;;;;;;0.30;0.30;;;28.50;60.80;;;29.12;44.18;94920.16;5032299;28;20191;-44
2023/06/23 05:24:11;;;;;;;0.30;0.30;;;28.50;60.80;;;29.11;44.38;94921.25;5031910;28;20770;-42
2023/06/23 05:26:41;;;;;;;0.30;0.30;;;28.50;60.70;;;29.11;44.14;94926.66;5031998;28;20635;-41
2023/06/23 05:29:11;;;;;;;0.22;0.22;;;28.50;60.80;;;29.08;44.08;94922.66;5047413;28;20197;-44
2023/06/23 05:31:42;;;;;;;0.30;0.30;;;28.50;60.70;;;29.08;44.37;94919.97;5031538;28;20635;-41
2023/06/23 05:34:14;;;;;;;0.20;0.20;;;28.50;60.70;;;29.07;44.41;94918.38;5031066;28;20209;-41
2023/06/23 05:36:43;;;;;;;0.30;0.30;;;28.50;60.70;;;29.06;44.41;94916.81;5047462;28;20179;-43
2023/06/23 05:39:16;;;;;;;0.20;0.20;;;28.50;60.70;;;29.06;43.92;94922.19;5047420;28;20532;-43
2023/06/23 05:41:43;;;;;;;0.20;0.20;;;28.50;60.70;;;29.06;43.91;94933.00;5032184;28;20242;-40
2023/06/23 05:44:10;;;;;;;0.25;0.25;;;28.50;60.80;;;29.06;43.92;94927.59;5031823;28;20202;-39
2023/06/23 05:46:41;;;;;;;0.30;0.30;;;28.50;60.70;;;29.05;44.04;94923.31;5031653;28;20194;-42
2023/06/23 05:49:17;;;;;;;0.30;0.30;;;28.50;60.70;;;29.05;44.03;94942.22;5049001;28;20638;-43
2023/06/23 05:51:56;;;;;;;0.30;0.30;;;28.40;61.60;;;29.04;44.37;94929.81;5051244;28;20279;-39
2023/06/23 05:54:26;;;;;;;0.30;0.30;;;28.40;60.60;;;29.04;44.12;94921.69;5034364;28;20270;-39
2023/06/23 05:56:58;;;;;;;0.30;0.30;;;28.40;60.70;;;29.05;44.40;94917.09;5051029;28;20236;-44
2023/06/23 05:59:33;;;;;;;0.30;0.30;;;28.40;60.70;;;29.04;44.47;94921.69;5034640;28;20347;-44
2023/06/23 06:02:04;;;;;;;0.30;0.30;;;28.50;60.70;;;29.04;43.90;94931.69;5051017;28;20215;-44
2023/06/23 06:04:34;;;;;;;0.30;0.30;;;28.50;60.80;;;29.03;43.78;94925.50;5035170;28;20266;-45
2023/06/23 06:07:02;;;;;;;0.22;0.22;;;28.50;60.70;;;29.03;44.43;94924.72;5035360;28;20186;-43
2023/06/23 06:09:31;;;;;;;0.20;0.20;;;28.50;60.70;;;29.02;43.74;94931.22;5035022;28;20201;-47
2023/06/23 06:11:59;;;;;;;0.20;0.20;;;28.40;60.60;;;29.02;43.96;94918.50;5034129;28;20365;-48
2023/06/23 06:14:29;;;;;;;0.22;0.22;;;28.40;60.60;;;29.02;44.33;94936.63;5050365;28;20617;-45
2023/06/23 06:16:57;;;;;;;0.30;0.30;;;28.40;60.60;;;29.01;43.61;94932.31;5034851;28;20679;-43
2023/06/23 06:19:27;;;;;;;0.20;0.20;;;28.40;60.50;;;29.02;43.91;94950.13;5050484;28;20193;-47
2023/06/23 06:21:56;;;;;;;0.20;0.20;;;28.40;60.60;;;29.01;44.18;94951.22;5034285;28;20183;-46
2023/06/23 06:24:25;;;;;;;0.28;0.28;;;28.40;60.50;;;29.01;43.84;94960.13;5034664;28;20232;-45
2023/06/23 06:26:56;;;;;;;0.30;0.30;;;28.40;60.60;;;29.00;43.82;94960.44;5034611;28;20267;-47
2023/06/23 06:29:24;;;;;;;0.30;0.30;;;28.40;60.60;;;28.99;43.88;94954.25;5034463;28;20189;-47
2023/06/23 06:31:53;;;;;;;0.30;0.30;;;28.40;60.50;;;28.99;44.29;94946.16;5035230;28;20618;-42
2023/06/23 06:34:24;;;;;;;0.20;0.20;;;28.40;60.50;;;28.99;44.34;94958.84;5050302;28;20214;-42
2023/06/23 06:36:54;;;;;;;0.30;0.30;;;28.40;60.50;;;28.98;44.13;94949.94;5034489;28;20498;-42
2023/06/23 06:39:22;;;;;;;0.20;0.20;;;28.40;60.60;;;28.98;44.24;94955.34;5033802;28;20622;-43
2023/06/23 06:41:51;;;;;;;0.20;0.20;;;28.40;60.40;;;28.98;44.34;94959.94;5050283;28;20257;-42
2023/06/23 06:44:18;;;;;;;0.30;0.30;;;28.40;60.50;;;28.98;43.69;94957.22;5033887;28;20242;-42
2023/06/23 06:46:47;;;;;;;0.20;0.20;;;28.40;60.50;;;28.97;44.08;94959.16;5049995;28;20232;-42
2023/06/23 06:49:18;;;;;;;0.30;0.30;;;28.40;60.40;;;28.96;44.26;94971.06;5033593;28;20210;-43
2023/06/23 06:51:46;;;;;;;0.20;0.20;;;28.40;60.40;;;28.96;43.58;94959.47;5033868;28;20190;-42
2023/06/23 06:54:16;;;;;;;0.30;0.30;;;28.40;60.40;;;28.95;43.69;94963.25;5034265;28;20230;-44
2023/06/23 06:56:46;;;;;;;0.30;0.30;;;28.40;60.40;;;28.92;43.58;94961.97;5049761;28;20198;-43
2023/06/23 06:59:14;;;;;;;0.30;0.30;;;28.40;60.40;;;28.93;44.10;94982.47;5034249;28;20590;-42
2023/06/23 07:01:42;;;;;;;0.20;0.20;;;28.40;60.30;;;28.92;43.67;94981.66;5032854;28;20227;-42
2023/06/23 07:04:09;;;;;;;0.20;0.20;;;28.40;60.30;;;28.92;43.48;94980.88;5050003;28;20204;-43
2023/06/23 07:06:37;;;;;;;0.30;0.30;;;28.30;61.20;;;28.92;43.95;94972.78;5034264;28;20204;-42
2023/06/23 07:09:04;;;;;;;0.30;0.30;;;28.30;60.30;;;28.91;43.60;94974.66;5049687;28;20203;-45
2023/06/23 07:11:32;;;;;;;0.30;0.30;;;28.30;60.20;;;28.91;43.44;94971.19;5034069;28;20198;-44
2023/06/23 07:13:59;;;;;;;0.30;0.30;;;28.30;60.30;;;28.90;43.63;94972.28;5033977;28;20286;-43
2023/06/23 07:16:30;;;;;;;0.30;0.30;;;28.30;60.20;;;28.90;43.37;94977.69;5033867;28;20193;-45
2023/06/23 07:18:57;;;;;;;0.30;0.30;;;28.30;60.10;;;28.88;43.71;94980.69;5034263;28;20193;-43
2023/06/23 07:21:24;;;;;;;0.30;0.30;;;28.30;60.20;;;28.88;43.46;94991.50;5033972;28;20229;-45
2023/06/23 07:23:52;;;;;;;0.20;0.20;;;28.30;60.10;;;28.87;43.40;95005.31;5033826;28;20299;-42
2023/06/23 07:26:19;;;;;;;0.22;0.22;;;28.30;60.10;;;28.88;43.64;94993.38;5033700;28;20649;-45
2023/06/23 07:28:46;;;;;;;0.30;0.30;;;28.30;60.10;;;28.88;43.69;94979.88;5034052;28;20218;-42
2023/06/23 07:31:14;;;;;;;0.30;0.30;;;28.30;60.00;;;28.85;43.62;94978.59;5049352;28;20211;-42
2023/06/23 07:33:41;;;;;;;0.20;0.20;;;28.20;59.90;;;28.85;42.94;94988.59;5033671;28;20209;-43
2023/06/23 07:36:08;;;;;;;0.38;0.38;;;28.20;60.70;;;28.83;43.59;94980.00;5049063;28;20191;-43
2023/06/23 07:38:35;;;;;;;0.30;0.30;;;28.30;59.90;;;28.84;43.13;94981.63;5033648;28;20196;-46
2023/06/23 07:41:03;;;;;;;0.20;0.20;;;28.20;59.70;;;28.83;42.73;94993.50;5033615;28;20190;-45
2023/06/23 07:43:30;;;;;;;0.30;0.30;;;28.30;59.90;;;28.83;43.08;94993.50;5033004;28;20288;-46
2023/06/23 07:45:57;;;;;;;0.30;0.30;;;28.20;59.80;;;28.82;43.42;94975.72;5033427;28;20284;-47
2023/06/23 07:48:25;;;;;;;0.25;0.25;;;28.20;59.70;;;28.82;43.43;94994.59;5048988;28;20192;-46
2023/06/23 07:50:52;;;;;;;0.30;0.30;;;28.20;59.70;;;28.82;43.49;94989.22;5049135;28;20310;-43
2023/06/23 07:53:19;;;;;;;0.30;0.30;;;28.20;59.80;;;28.82;43.15;94989.22;5032842;28;20285;-45
2023/06/23 07:55:46;;;;;;;0.30;0.30;;;28.20;60.70;;;28.81;43.18;94983.03;5033195;28;20231;-45
2023/06/23 07:58:14;;;;;;;0.22;0.22;;;28.20;59.70;;;28.80;42.72;94973.31;5033561;28;20211;-46
2023/06/23 08:00:41;;;;;;;0.30;0.30;;;28.20;59.70;;;28.82;43.29;94981.94;5033297;28;20202;-46
2023/06/23 08:03:08;;;;;;;0.30;0.30;;;28.20;59.70;;;28.84;43.41;94989.72;5033267;28;20193;-47
2023/06/23 08:05:36;;;;;;;0.30;0.30;;;28.20;59.70;;;28.85;42.88;94988.59;5033057;28;20198;-48
2023/06/23 08:08:04;;;;;;;0.30;0.30;;;28.20;59.80;;;28.83;43.43;94986.22;5048839;28;20193;-43
2023/06/23 08:10:31;;;;;;;0.20;0.20;;;28.20;59.80;;;28.85;43.20;94997.50;5033156;28;20216;-48
2023/06/23 08:12:58;;;;;;;0.30;0.30;;;28.20;59.90;;;28.87;43.03;94997.22;5032977;28;20204;-44
2023/06/23 08:15:25;;;;;;;0.30;0.30;;;28.20;59.70;;;28.82;42.95;94981.94;5032027;28;20558;-46
2023/06/23 08:17:54;;;;;;;0.28;0.28;;;28.20;59.70;;;28.89;43.20;94992.28;5031975;28;20205;-47
2023/06/23 08:20:22;;;;;;;0.30;0.30;;;28.20;59.70;;;28.90;42.81;94991.19;5033015;28;20218;-47
2023/06/23 08:22:50;;;;;;;0.30;0.30;;;28.20;59.70;;;28.90;43.11;94986.56;5032761;28;20626;-44
2023/06/23 08:25:17;;;;;;;0.30;0.30;;;28.20;59.70;;;28.91;42.96;94985.47;5032096;28;20202;-49
2023/06/23 08:27:45;;;;;;;0.20;0.20;;;28.30;59.70;;;28.92;43.05;94997.88;5032801;28;20603;-43
2023/06/23 08:30:15;;;;;;;0.30;0.30;;;28.30;59.70;;;28.94;43.14;94994.06;5032869;28;20642;-38
2023/06/23 08:32:43;;;;;;;0.25;0.25;;;28.30;59.50;;;28.94;43.01;94996.75;5033133;28;20194;-39
2023/06/23 08:35:10;;;;;;;0.20;0.20;;;28.30;59.50;;;28.93;43.18;95001.38;5032694;28;20236;-38
2023/06/23 08:37:39;;;;;;;0.30;0.30;;;28.30;59.50;;;28.94;42.94;95019.16;5033630;28;20202;-44
2023/06/23 08:40:07;;;;;;;0.30;0.30;;;28.30;59.40;;;28.95;43.16;95012.66;5032885;28;20672;-43
2023/06/23 08:42:35;;;;;;;0.20;0.20;;;28.30;59.30;;;28.96;42.71;95016.16;5032773;28;20189;-42
2023/06/23 08:45:05;;;;;;;0.20;0.20;;;28.30;59.30;;;28.97;42.94;95018.56;5032763;28;20656;-39
2023/06/23 08:47:37;;;;;;;0.30;0.30;;;28.40;59.50;;;28.98;43.13;95020.16;5032458;28;20226;-39
2023/06/23 08:50:06;;;;;;;0.20;0.20;;;28.40;59.40;;;28.98;42.50;95028.25;5032829;28;20222;-42
2023/06/23 08:52:34;;;;;;;0.30;0.30;;;28.40;59.50;;;29.00;42.84;95028.75;5032544;28;20221;-42
2023/06/23 08:55:02;;;;;;;0.30;0.30;;;28.40;59.30;;;28.99;42.67;95002.03;5031594;28;20307;-41
2023/06/23 08:57:30;;;;;;;0.20;0.20;;;28.40;59.30;;;28.99;42.88;95002.03;5032342;28;20193;-42
2023/06/23 08:59:58;;;;;;;0.20;0.20;;;28.40;59.40;;;28.99;42.95;95002.84;5032474;28;20205;-42
2023/06/23 09:02:25;;;;;;;0.20;0.20;;;28.40;59.40;;;29.00;43.07;95022.53;5047946;28;20197;-42
2023/06/23 09:04:52;;;;;;;0.20;0.20;;;28.40;59.30;;;28.99;42.86;95008.25;5032884;28;20280;-42
2023/06/23 09:07:20;;;;;;;0.30;0.30;;;28.40;59.20;;;29.01;42.77;95024.13;5032324;28;20295;-42
2023/06/23 09:09:47;;;;;;;0.20;0.20;;;28.40;59.20;;;29.01;42.77;95030.31;5047957;28;20250;-42
2023/06/23 09:12:16;;;;;;;0.20;0.20;;;28.40;59.20;;;29.02;42.69;95037.31;5032193;28;20705;-42
2023/06/23 09:14:43;;;;;;;0.20;0.20;;;28.40;58.90;;;29.03;42.51;95032.75;5032182;28;20218;-41
2023/06/23 09:17:11;;;;;;;0.30;0.30;;;28.40;58.80;;;29.02;42.30;95039.25;5047749;28;20202;-42
2023/06/23 09:19:42;;;;;;;0.30;0.30;;;28.40;58.90;;;29.02;42.40;95045.44;5047664;28;20193;-42
2023/06/23 09:22:09;;;;;;;0.38;0.38;;;28.40;58.80;;;29.05;42.13;95044.00;5048084;28;20582;-43
2023/06/23 09:24:43;;;;;;;0.30;0.30;;;28.50;59.00;;;29.05;42.57;95057.50;5031360;28;20690;-43
2023/06/23 09:27:11;;;;;;;0.30;0.30;;;28.40;58.80;;;29.06;41.92;95057.22;5047654;28;20190;-39
2023/06/23 09:29:38;;;;;;;0.30;0.30;;;28.40;58.70;;;29.07;42.00;95048.00;5031269;28;20299;-42
2023/06/23 09:32:08;;;;;;;0.30;0.30;;;28.50;58.70;;;29.08;41.86;95049.59;5032006;28;20267;-42
2023/06/23 09:34:41;;;;;;;0.25;0.25;;;28.50;58.70;;;29.08;42.37;95049.59;5031412;28;20206;-42
2023/06/23 09:37:11;;;;;;;0.20;0.20;;;28.50;58.70;;;29.09;42.03;95047.72;5047179;28;20701;-40
2023/06/23 09:39:49;;;;;;;0.30;0.30;;;28.50;59.90;;;29.11;41.79;95042.00;5031956;28;20198;-40
2023/06/23 09:42:16;;;;;;;0.20;0.20;;;28.50;58.40;;;29.11;42.21;95034.69;5032219;28;20255;-41
2023/06/23 09:44:45;;;;;;;0.30;0.30;;;28.50;58.50;;;29.12;41.68;95041.69;5032110;28;20205;-44
2023/06/23 09:47:18;;;;;;;0.30;0.30;;;28.50;58.50;;;29.13;41.81;95039.78;5031795;28;20274;-43
2023/06/23 09:49:49;;;;;;;0.30;0.30;;;28.50;58.30;;;29.14;41.74;95055.69;5031878;28;20187;-43
2023/06/23 09:52:27;;;;;;;0.22;0.22;;;28.50;58.20;;;29.14;42.21;95044.88;5031793;28;20191;-43
2023/06/23 09:54:56;;;;;;;0.30;0.30;;;28.50;58.20;;;29.17;42.08;95048.88;5032028;28;20538;-47
2023/06/23 09:57:23;;;;;;;0.20;0.20;;;28.50;58.20;;;29.16;41.98;95055.38;5031581;28;20714;-42
2023/06/23 09:59:53;;;;;;;0.30;0.30;;;28.50;58.20;;;29.17;41.34;95051.56;5047375;28;20251;-40
2023/06/23 10:02:28;;;;;;;0.22;0.22;;;28.50;58.00;;;29.16;41.53;95064.28;5031935;28;20200;-41
2023/06/23 10:05:04;;;;;;;0.30;0.30;;;28.60;58.10;;;29.17;41.87;95073.19;5030835;28;20252;-44
2023/06/23 10:07:32;;;;;;;0.20;0.20;;;28.60;58.00;;;29.18;42.06;95062.06;5031456;28;20195;-40
2023/06/23 10:10:07;;;;;;;0.30;0.30;;;28.60;58.00;;;29.17;41.82;95076.66;5031540;28;20291;-46
2023/06/23 10:12:39;;;;;;;0.30;0.30;;;28.60;57.90;;;29.19;41.27;95074.47;5031880;28;20274;-42
2023/06/23 10:15:09;;;;;;;0.30;0.30;;;28.60;58.00;;;29.18;41.63;95093.69;5032187;28;20592;-43
2023/06/23 10:17:37;;;;;;;0.30;0.30;;;28.60;58.00;;;29.19;41.21;95095.28;5030596;28;20214;-42
2023/06/23 10:20:06;;;;;;;0.30;0.30;;;28.60;57.90;;;29.19;41.27;95092.59;5030542;28;20279;-43
2023/06/23 10:22:36;;;;;;;0.20;0.20;;;28.60;57.90;;;29.21;41.76;95101.16;5031258;28;20507;-40
2023/06/23 10:25:09;;;;;;;0.30;0.30;;;28.60;57.90;;;29.21;41.75;95098.47;5031642;28;20229;-40
2023/06/23 10:27:37;;;;;;;0.20;0.20;;;28.60;58.00;;;29.23;41.82;95099.78;5031470;28;20195;-40
2023/06/23 10:30:06;;;;;;;0.32;0.32;;;28.60;58.00;;;29.22;41.27;95100.88;5030459;28;20571;-39
2023/06/23 10:32:37;;;;;;;0.30;0.30;;;28.60;58.00;;;29.22;41.78;95092.78;5030720;28;20202;-40
2023/06/23 10:35:08;;;;;;;0.30;0.30;;;28.60;58.00;;;29.25;41.58;95094.06;5031505;28;20277;-40
2023/06/23 10:37:36;;;;;;;0.20;0.20;;;28.60;58.00;;;29.26;41.88;95089.44;5034549;28;20272;-40